Terminal Aerodrome Forecast
Issued by NWS

Home | Current Version | Previous Version | Text Only | Print | Product List | Glossary On
Versions: 1 2 3 4 5 6 7 8 9 10 11 12 13 14 15 16 17 18 19 20 21 22 23 24 25 26 27 28 29 30 31 32 33 34
000
FTUS43 KGRR 160757 AAA
TAFLAN
TAF AMD
KLAN 160757Z 1608/1706 08009KT P6SM OVC010
     FM161200 07007KT 5SM BR VCSH OVC010
     FM161800 06007KT 5SM BR OVC008
     FM170000 05005KT 6SM BR OVC009=

USA.gov is the U.S. government's official web portal to all federal, state and local government web resources and services.